sensor_id;sensor_type;location;lat;lon;timestamp;temperature;humidity
77467;DHT22;66564;42.482;25.548;2023-03-23T00:01:00;10.48;74.41
77467;DHT22;66564;42.482;25.548;2023-03-23T00:03:26;10.53;74.61
77467;DHT22;66564;42.482;25.548;2023-03-23T00:05:54;10.49;74.83
77467;DHT22;66564;42.482;25.548;2023-03-23T00:08:28;10.53;75.27
77467;DHT22;66564;42.482;25.548;2023-03-23T00:10:53;10.50;74.76
77467;DHT22;66564;42.482;25.548;2023-03-23T00:13:23;10.56;74.49
77467;DHT22;66564;42.482;25.548;2023-03-23T00:15:48;10.50;74.49
77467;DHT22;66564;42.482;25.548;2023-03-23T00:18:15;10.53;75.07
77467;DHT22;66564;42.482;25.548;2023-03-23T00:20:56;10.49;74.74
77467;DHT22;66564;42.482;25.548;2023-03-23T00:23:24;10.49;74.90
77467;DHT22;66564;42.482;25.548;2023-03-23T00:25:55;10.43;75.03
77467;DHT22;66564;42.482;25.548;2023-03-23T00:28:26;10.49;74.55
77467;DHT22;66564;42.482;25.548;2023-03-23T00:31:02;10.48;74.76
77467;DHT22;66564;42.482;25.548;2023-03-23T00:33:30;10.46;75.17
77467;DHT22;66564;42.482;25.548;2023-03-23T00:35:59;10.43;74.48
77467;DHT22;66564;42.482;25.548;2023-03-23T00:38:27;10.43;74.99
77467;DHT22;66564;42.482;25.548;2023-03-23T00:40:53;10.40;74.96
77467;DHT22;66564;42.482;25.548;2023-03-23T00:43:19;10.42;74.82
77467;DHT22;66564;42.482;25.548;2023-03-23T00:45:46;10.43;75.07
77467;DHT22;66564;42.482;25.548;2023-03-23T00:48:22;10.45;74.25
77467;DHT22;66564;42.482;25.548;2023-03-23T00:50:49;10.39;74.91
77467;DHT22;66564;42.482;25.548;2023-03-23T00:53:15;10.43;74.18
77467;DHT22;66564;42.482;25.548;2023-03-23T00:55:42;10.45;74.55
77467;DHT22;66564;42.482;25.548;2023-03-23T00:58:09;10.43;74.40
77467;DHT22;66564;42.482;25.548;2023-03-23T01:00:35;10.40;74.54
77467;DHT22;66564;42.482;25.548;2023-03-23T01:03:01;10.46;74.24
77467;DHT22;66564;42.482;25.548;2023-03-23T01:05:32;10.46;74.37
77467;DHT22;66564;42.482;25.548;2023-03-23T01:07:59;10.46;74.74
77467;DHT22;66564;42.482;25.548;2023-03-23T01:10:24;10.48;74.89
77467;DHT22;66564;42.482;25.548;2023-03-23T01:12:52;10.49;74.89
77467;DHT22;66564;42.482;25.548;2023-03-23T01:15:19;10.49;74.45
77467;DHT22;66564;42.482;25.548;2023-03-23T01:17:45;10.49;74.45
77467;DHT22;66564;42.482;25.548;2023-03-23T01:20:13;10.46;74.66
77467;DHT22;66564;42.482;25.548;2023-03-23T01:22:40;10.46;73.75
77467;DHT22;66564;42.482;25.548;2023-03-23T01:25:06;10.36;74.45
77467;DHT22;66564;42.482;25.548;2023-03-23T01:27:32;10.39;74.84
77467;DHT22;66564;42.482;25.548;2023-03-23T01:29:58;10.42;74.28
77467;DHT22;66564;42.482;25.548;2023-03-23T01:32:23;10.45;74.19
77467;DHT22;66564;42.482;25.548;2023-03-23T01:34:49;10.46;74.78
77467;DHT22;66564;42.482;25.548;2023-03-23T01:37:14;10.48;74.63
77467;DHT22;66564;42.482;25.548;2023-03-23T01:39:41;10.52;74.13
77467;DHT22;66564;42.482;25.548;2023-03-23T01:42:08;10.56;73.46
77467;DHT22;66564;42.482;25.548;2023-03-23T01:47:00;10.56;74.11
77467;DHT22;66564;42.482;25.548;2023-03-23T01:49:52;10.55;73.64
77467;DHT22;66564;42.482;25.548;2023-03-23T01:52:26;10.45;73.86
77467;DHT22;66564;42.482;25.548;2023-03-23T01:54:55;10.36;74.23
77467;DHT22;66564;42.482;25.548;2023-03-23T01:57:24;10.35;74.65
77467;DHT22;66564;42.482;25.548;2023-03-23T01:59:53;10.20;75.24
77467;DHT22;66564;42.482;25.548;2023-03-23T02:02:22;10.30;74.81
77467;DHT22;66564;42.482;25.548;2023-03-23T02:04:49;10.33;75.01
77467;DHT22;66564;42.482;25.548;2023-03-23T02:07:17;10.32;74.32
77467;DHT22;66564;42.482;25.548;2023-03-23T02:09:43;10.32;75.36
77467;DHT22;66564;42.482;25.548;2023-03-23T02:12:09;10.22;74.79
77467;DHT22;66564;42.482;25.548;2023-03-23T02:14:34;10.32;74.92
77467;DHT22;66564;42.482;25.548;2023-03-23T02:22:35;10.43;73.99
77467;DHT22;66564;42.482;25.548;2023-03-23T02:33:56;10.56;73.96
77467;DHT22;66564;42.482;25.548;2023-03-23T02:36:37;10.50;73.57
77467;DHT22;66564;42.482;25.548;2023-03-23T02:42:07;10.56;73.52
77467;DHT22;66564;42.482;25.548;2023-03-23T02:44:35;10.59;73.46
77467;DHT22;66564;42.482;25.548;2023-03-23T02:47:04;10.60;73.15
77467;DHT22;66564;42.482;25.548;2023-03-23T02:49:31;10.60;73.79
77467;DHT22;66564;42.482;25.548;2023-03-23T02:51:59;10.55;74.20
77467;DHT22;66564;42.482;25.548;2023-03-23T02:54:26;10.50;73.87
77467;DHT22;66564;42.482;25.548;2023-03-23T02:56:53;10.50;73.03
77467;DHT22;66564;42.482;25.548;2023-03-23T02:59:20;10.59;74.14
77467;DHT22;66564;42.482;25.548;2023-03-23T03:01:50;10.57;73.88
77467;DHT22;66564;42.482;25.548;2023-03-23T03:04:19;10.56;73.48
77467;DHT22;66564;42.482;25.548;2023-03-23T03:11:57;10.64;73.34
77467;DHT22;66564;42.482;25.548;2023-03-23T03:14:48;10.70;73.19
77467;DHT22;66564;42.482;25.548;2023-03-23T03:17:23;10.70;73.31
77467;DHT22;66564;42.482;25.548;2023-03-23T03:19:51;10.70;73.37
77467;DHT22;66564;42.482;25.548;2023-03-23T03:22:18;10.70;73.14
77467;DHT22;66564;42.482;25.548;2023-03-23T03:24:46;10.76;73.34
77467;DHT22;66564;42.482;25.548;2023-03-23T03:27:21;10.79;72.69
77467;DHT22;66564;42.482;25.548;2023-03-23T03:29:53;10.84;73.06
77467;DHT22;66564;42.482;25.548;2023-03-23T03:32:23;10.83;72.55
77467;DHT22;66564;42.482;25.548;2023-03-23T03:34:50;10.81;72.94
77467;DHT22;66564;42.482;25.548;2023-03-23T03:37:16;10.84;72.19
77467;DHT22;66564;42.482;25.548;2023-03-23T03:39:42;10.81;72.19
77467;DHT22;66564;42.482;25.548;2023-03-23T03:42:08;10.81;72.28
77467;DHT22;66564;42.482;25.548;2023-03-23T03:44:33;10.83;72.64
77467;DHT22;66564;42.482;25.548;2023-03-23T03:46:59;10.84;72.62
77467;DHT22;66564;42.482;25.548;2023-03-23T03:49:25;10.77;71.98
77467;DHT22;66564;42.482;25.548;2023-03-23T03:51:51;10.77;72.56
77467;DHT22;66564;42.482;25.548;2023-03-23T03:54:16;10.79;72.29
77467;DHT22;66564;42.482;25.548;2023-03-23T03:56:42;10.74;71.81
77467;DHT22;66564;42.482;25.548;2023-03-23T03:59:09;10.77;72.29
77467;DHT22;66564;42.482;25.548;2023-03-23T04:01:36;10.80;71.25
77467;DHT22;66564;42.482;25.548;2023-03-23T04:04:01;10.74;72.16
77467;DHT22;66564;42.482;25.548;2023-03-23T04:06:27;10.64;72.64
77467;DHT22;66564;42.482;25.548;2023-03-23T04:08:57;10.72;73.01
77467;DHT22;66564;42.482;25.548;2023-03-23T04:11:24;10.72;72.88
77467;DHT22;66564;42.482;25.548;2023-03-23T04:13:50;10.70;72.48
77467;DHT22;66564;42.482;25.548;2023-03-23T04:16:16;10.74;72.77
77467;DHT22;66564;42.482;25.548;2023-03-23T04:18:42;10.73;72.21
77467;DHT22;66564;42.482;25.548;2023-03-23T04:21:08;10.72;71.55
77467;DHT22;66564;42.482;25.548;2023-03-23T04:23:35;10.76;72.81
77467;DHT22;66564;42.482;25.548;2023-03-23T04:26:02;10.76;72.45
77467;DHT22;66564;42.482;25.548;2023-03-23T04:28:28;10.73;73.16
77467;DHT22;66564;42.482;25.548;2023-03-23T04:30:55;10.76;72.41
77467;DHT22;66564;42.482;25.548;2023-03-23T04:33:22;10.76;72.14
77467;DHT22;66564;42.482;25.548;2023-03-23T04:35:51;10.72;72.84
77467;DHT22;66564;42.482;25.548;2023-03-23T04:38:17;10.73;71.69
77467;DHT22;66564;42.482;25.548;2023-03-23T04:40:46;10.77;72.80
77467;DHT22;66564;42.482;25.548;2023-03-23T04:43:12;10.74;73.09
77467;DHT22;66564;42.482;25.548;2023-03-23T04:45:38;10.80;72.74
77467;DHT22;66564;42.482;25.548;2023-03-23T04:48:07;10.74;72.97
77467;DHT22;66564;42.482;25.548;2023-03-23T04:50:33;10.69;72.81
77467;DHT22;66564;42.482;25.548;2023-03-23T04:53:01;10.67;72.79
77467;DHT22;66564;42.482;25.548;2023-03-23T04:55:31;10.64;73.10
77467;DHT22;66564;42.482;25.548;2023-03-23T04:58:02;10.66;73.21
77467;DHT22;66564;42.482;25.548;2023-03-23T05:00:28;10.66;72.78
77467;DHT22;66564;42.482;25.548;2023-03-23T05:02:54;10.64;72.54
77467;DHT22;66564;42.482;25.548;2023-03-23T05:05:21;10.60;73.34
77467;DHT22;66564;42.482;25.548;2023-03-23T05:07:47;10.59;72.99
77467;DHT22;66564;42.482;25.548;2023-03-23T05:10:13;10.64;72.62
77467;DHT22;66564;42.482;25.548;2023-03-23T05:12:39;10.73;72.65
77467;DHT22;66564;42.482;25.548;2023-03-23T05:15:06;10.73;72.40
77467;DHT22;66564;42.482;25.548;2023-03-23T05:17:32;10.72;72.02
77467;DHT22;66564;42.482;25.548;2023-03-23T05:19:59;10.73;72.16
77467;DHT22;66564;42.482;25.548;2023-03-23T05:22:28;10.76;72.01
77467;DHT22;66564;42.482;25.548;2023-03-23T05:24:53;10.83;71.89
77467;DHT22;66564;42.482;25.548;2023-03-23T05:27:19;10.84;71.89
77467;DHT22;66564;42.482;25.548;2023-03-23T05:29:46;10.72;72.51
77467;DHT22;66564;42.482;25.548;2023-03-23T05:32:14;10.76;72.18
77467;DHT22;66564;42.482;25.548;2023-03-23T05:34:40;10.83;72.36
77467;DHT22;66564;42.482;25.548;2023-03-23T05:37:07;10.83;72.47
77467;DHT22;66564;42.482;25.548;2023-03-23T05:39:35;10.89;72.18
77467;DHT22;66564;42.482;25.548;2023-03-23T05:42:02;10.89;71.94
77467;DHT22;66564;42.482;25.548;2023-03-23T05:44:28;10.81;72.26
77467;DHT22;66564;42.482;25.548;2023-03-23T05:46:54;10.94;72.12
77467;DHT22;66564;42.482;25.548;2023-03-23T05:49:19;11.04;71.42
77467;DHT22;66564;42.482;25.548;2023-03-23T05:51:45;11.07;72.02
77467;DHT22;66564;42.482;25.548;2023-03-23T05:54:12;11.10;71.89
77467;DHT22;66564;42.482;25.548;2023-03-23T05:56:38;11.11;71.33
77467;DHT22;66564;42.482;25.548;2023-03-23T05:59:04;11.08;71.07
77467;DHT22;66564;42.482;25.548;2023-03-23T06:01:30;11.03;71.05
77467;DHT22;66564;42.482;25.548;2023-03-23T06:03:57;10.96;71.42
77467;DHT22;66564;42.482;25.548;2023-03-23T06:06:29;10.93;72.59
77467;DHT22;66564;42.482;25.548;2023-03-23T06:08:56;10.94;72.55
77467;DHT22;66564;42.482;25.548;2023-03-23T06:11:23;10.90;72.78
77467;DHT22;66564;42.482;25.548;2023-03-23T06:13:49;10.94;73.18
77467;DHT22;66564;42.482;25.548;2023-03-23T06:16:15;10.94;73.03
77467;DHT22;66564;42.482;25.548;2023-03-23T06:18:43;10.89;72.88
77467;DHT22;66564;42.482;25.548;2023-03-23T06:21:09;10.90;73.39
77467;DHT22;66564;42.482;25.548;2023-03-23T06:23:35;10.92;73.24
77467;DHT22;66564;42.482;25.548;2023-03-23T06:26:06;10.93;73.35
77467;DHT22;66564;42.482;25.548;2023-03-23T06:28:33;10.84;74.05
77467;DHT22;66564;42.482;25.548;2023-03-23T06:31:03;10.87;73.83
77467;DHT22;66564;42.482;25.548;2023-03-23T06:33:32;10.67;75.13
77467;DHT22;66564;42.482;25.548;2023-03-23T06:35:57;10.79;74.30
77467;DHT22;66564;42.482;25.548;2023-03-23T06:38:23;10.79;74.88
77467;DHT22;66564;42.482;25.548;2023-03-23T06:40:53;10.90;75.19
77467;DHT22;66564;42.482;25.548;2023-03-23T06:43:19;10.96;74.29
77467;DHT22;66564;42.482;25.548;2023-03-23T06:45:45;11.03;74.03
77467;DHT22;66564;42.482;25.548;2023-03-23T06:48:11;10.94;73.43
77467;DHT22;66564;42.482;25.548;2023-03-23T06:50:37;11.03;73.59
77467;DHT22;66564;42.482;25.548;2023-03-23T06:53:03;11.06;73.02
77467;DHT22;66564;42.482;25.548;2023-03-23T06:55:28;11.07;72.91
77467;DHT22;66564;42.482;25.548;2023-03-23T06:57:54;11.14;73.42
77467;DHT22;66564;42.482;25.548;2023-03-23T07:00:20;11.07;73.24
77467;DHT22;66564;42.482;25.548;2023-03-23T07:02:45;11.13;72.23
77467;DHT22;66564;42.482;25.548;2023-03-23T07:05:12;11.14;72.35
77467;DHT22;66564;42.482;25.548;2023-03-23T07:07:38;11.21;72.29
77467;DHT22;66564;42.482;25.548;2023-03-23T07:10:06;11.27;72.80
77467;DHT22;66564;42.482;25.548;2023-03-23T07:12:32;11.04;74.47
77467;DHT22;66564;42.482;25.548;2023-03-23T07:14:58;11.24;72.36
77467;DHT22;66564;42.482;25.548;2023-03-23T07:17:23;11.28;71.99
77467;DHT22;66564;42.482;25.548;2023-03-23T07:19:49;11.34;71.60
77467;DHT22;66564;42.482;25.548;2023-03-23T07:22:15;11.39;71.44
77467;DHT22;66564;42.482;25.548;2023-03-23T07:24:41;11.47;72.50
77467;DHT22;66564;42.482;25.548;2023-03-23T07:27:07;11.51;70.78
77467;DHT22;66564;42.482;25.548;2023-03-23T07:29:32;11.52;71.89
77467;DHT22;66564;42.482;25.548;2023-03-23T07:32:01;11.62;70.89
77467;DHT22;66564;42.482;25.548;2023-03-23T07:34:27;11.71;69.66
77467;DHT22;66564;42.482;25.548;2023-03-23T07:36:53;11.78;70.53
77467;DHT22;66564;42.482;25.548;2023-03-23T07:39:18;11.61;71.69
77467;DHT22;66564;42.482;25.548;2023-03-23T07:41:44;11.75;70.56
77467;DHT22;66564;42.482;25.548;2023-03-23T07:44:09;11.77;69.01
77467;DHT22;66564;42.482;25.548;2023-03-23T07:46:35;11.88;70.15
77467;DHT22;66564;42.482;25.548;2023-03-23T07:49:01;11.91;69.99
77467;DHT22;66564;42.482;25.548;2023-03-23T07:51:31;11.98;69.53
77467;DHT22;66564;42.482;25.548;2023-03-23T07:53:57;12.10;68.34
77467;DHT22;66564;42.482;25.548;2023-03-23T07:56:22;12.20;67.71
77467;DHT22;66564;42.482;25.548;2023-03-23T07:58:48;12.28;67.63
77467;DHT22;66564;42.482;25.548;2023-03-23T08:01:14;12.28;67.49
77467;DHT22;66564;42.482;25.548;2023-03-23T08:03:41;12.29;67.33
77467;DHT22;66564;42.482;25.548;2023-03-23T08:06:07;12.30;65.64
77467;DHT22;66564;42.482;25.548;2023-03-23T08:08:34;12.28;66.12
77467;DHT22;66564;42.482;25.548;2023-03-23T08:10:59;12.36;67.08
77467;DHT22;66564;42.482;25.548;2023-03-23T08:13:25;12.34;66.93
77467;DHT22;66564;42.482;25.548;2023-03-23T08:15:50;12.47;67.29
77467;DHT22;66564;42.482;25.548;2023-03-23T08:18:16;12.53;66.81
77467;DHT22;66564;42.482;25.548;2023-03-23T08:20:42;12.60;66.45
77467;DHT22;66564;42.482;25.548;2023-03-23T08:23:10;12.67;66.00
77467;DHT22;66564;42.482;25.548;2023-03-23T08:25:36;12.70;65.93
77467;DHT22;66564;42.482;25.548;2023-03-23T08:28:03;12.81;67.49
77467;DHT22;66564;42.482;25.548;2023-03-23T08:30:30;12.97;66.48
77467;DHT22;66564;42.482;25.548;2023-03-23T08:32:59;13.04;65.46
77467;DHT22;66564;42.482;25.548;2023-03-23T08:35:26;13.17;65.40
77467;DHT22;66564;42.482;25.548;2023-03-23T08:37:53;12.79;63.79
77467;DHT22;66564;42.482;25.548;2023-03-23T08:40:21;13.04;63.87
77467;DHT22;66564;42.482;25.548;2023-03-23T08:42:49;13.19;63.60
77467;DHT22;66564;42.482;25.548;2023-03-23T08:45:17;13.52;65.04
77467;DHT22;66564;42.482;25.548;2023-03-23T08:47:43;13.73;62.28
77467;DHT22;66564;42.482;25.548;2023-03-23T08:50:14;13.86;63.37
77467;DHT22;66564;42.482;25.548;2023-03-23T08:52:41;14.05;60.62
77467;DHT22;66564;42.482;25.548;2023-03-23T08:55:07;14.16;60.51
77467;DHT22;66564;42.482;25.548;2023-03-23T08:57:34;14.33;60.22
77467;DHT22;66564;42.482;25.548;2023-03-23T09:00:02;14.32;57.80
77467;DHT22;66564;42.482;25.548;2023-03-23T09:02:38;14.30;57.19
77467;DHT22;66564;42.482;25.548;2023-03-23T09:05:04;14.37;58.20
77467;DHT22;66564;42.482;25.548;2023-03-23T09:07:30;14.41;56.59
77467;DHT22;66564;42.482;25.548;2023-03-23T09:09:55;14.48;57.07
77467;DHT22;66564;42.482;25.548;2023-03-23T09:12:21;14.48;56.71
77467;DHT22;66564;42.482;25.548;2023-03-23T09:14:46;14.55;55.62
77467;DHT22;66564;42.482;25.548;2023-03-23T09:17:12;14.59;56.03
77467;DHT22;66564;42.482;25.548;2023-03-23T09:19:38;14.43;54.76
77467;DHT22;66564;42.482;25.548;2023-03-23T09:22:03;14.40;55.95
77467;DHT22;66564;42.482;25.548;2023-03-23T09:24:30;14.36;54.92
77467;DHT22;66564;42.482;25.548;2023-03-23T09:26:56;14.37;54.95
77467;DHT22;66564;42.482;25.548;2023-03-23T09:29:25;14.23;55.02
77467;DHT22;66564;42.482;25.548;2023-03-23T09:31:50;14.05;55.57
77467;DHT22;66564;42.482;25.548;2023-03-23T09:34:16;14.05;55.36
77467;DHT22;66564;42.482;25.548;2023-03-23T09:36:43;13.95;56.25
77467;DHT22;66564;42.482;25.548;2023-03-23T09:39:09;13.89;56.78
77467;DHT22;66564;42.482;25.548;2023-03-23T09:44:42;13.81;56.41
77467;DHT22;66564;42.482;25.548;2023-03-23T09:49:43;13.72;57.71
77467;DHT22;66564;42.482;25.548;2023-03-23T09:52:14;13.61;57.52
77467;DHT22;66564;42.482;25.548;2023-03-23T09:54:41;13.45;58.45
77467;DHT22;66564;42.482;25.548;2023-03-23T09:59:53;13.42;57.97
77467;DHT22;66564;42.482;25.548;2023-03-23T10:02:35;13.45;58.63
77467;DHT22;66564;42.482;25.548;2023-03-23T10:07:49;13.32;57.85
77467;DHT22;66564;42.482;25.548;2023-03-23T10:10:15;13.34;57.38
77467;DHT22;66564;42.482;25.548;2023-03-23T10:12:52;13.24;57.83
77467;DHT22;66564;42.482;25.548;2023-03-23T10:15:26;13.24;58.23
77467;DHT22;66564;42.482;25.548;2023-03-23T10:18:00;13.29;58.68
77467;DHT22;66564;42.482;25.548;2023-03-23T10:26:06;13.34;58.40
77467;DHT22;66564;42.482;25.548;2023-03-23T10:28:41;13.37;58.05
77467;DHT22;66564;42.482;25.548;2023-03-23T10:31:22;13.25;56.97
77467;DHT22;66564;42.482;25.548;2023-03-23T10:33:51;13.21;57.79
77467;DHT22;66564;42.482;25.548;2023-03-23T10:36:34;13.21;57.98
77467;DHT22;66564;42.482;25.548;2023-03-23T10:39:11;13.10;57.54
77467;DHT22;66564;42.482;25.548;2023-03-23T10:41:37;13.10;57.76
77467;DHT22;66564;42.482;25.548;2023-03-23T10:44:17;13.14;58.31
77467;DHT22;66564;42.482;25.548;2023-03-23T10:50:00;13.18;57.80
77467;DHT22;66564;42.482;25.548;2023-03-23T10:52:35;13.17;57.79
77467;DHT22;66564;42.482;25.548;2023-03-23T10:55:06;13.14;57.16
77467;DHT22;66564;42.482;25.548;2023-03-23T10:57:34;13.15;58.26
77467;DHT22;66564;42.482;25.548;2023-03-23T11:00:19;13.04;58.59
77467;DHT22;66564;42.482;25.548;2023-03-23T11:02:47;13.11;58.04
77467;DHT22;66564;42.482;25.548;2023-03-23T11:05:21;13.21;57.90
77467;DHT22;66564;42.482;25.548;2023-03-23T11:07:56;13.27;58.32
77467;DHT22;66564;42.482;25.548;2023-03-23T11:10:34;13.35;56.63
77467;DHT22;66564;42.482;25.548;2023-03-23T11:13:00;13.38;57.37
77467;DHT22;66564;42.482;25.548;2023-03-23T11:15:38;13.47;57.18
77467;DHT22;66564;42.482;25.548;2023-03-23T11:18:26;13.59;57.05
77467;DHT22;66564;42.482;25.548;2023-03-23T11:20:57;13.58;57.23
77467;DHT22;66564;42.482;25.548;2023-03-23T11:23:35;13.62;56.38
77467;DHT22;66564;42.482;25.548;2023-03-23T11:29:28;13.75;55.40
77467;DHT22;66564;42.482;25.548;2023-03-23T11:31:35;13.86;56.46
77467;DHT22;66564;42.482;25.548;2023-03-23T11:36:38;14.03;55.41
77467;DHT22;66564;42.482;25.548;2023-03-23T11:39:28;14.15;55.39
77467;DHT22;66564;42.482;25.548;2023-03-23T11:41:57;14.23;55.50
77467;DHT22;66564;42.482;25.548;2023-03-23T11:44:31;14.34;54.68
77467;DHT22;66564;42.482;25.548;2023-03-23T11:47:05;14.48;53.11
77467;DHT22;66564;42.482;25.548;2023-03-23T11:49:45;14.63;56.04
77467;DHT22;66564;42.482;25.548;2023-03-23T11:52:46;14.88;57.29
77467;DHT22;66564;42.482;25.548;2023-03-23T11:55:17;15.05;53.98
77467;DHT22;66564;42.482;25.548;2023-03-23T11:57:44;15.07;54.30
77467;DHT22;66564;42.482;25.548;2023-03-23T12:00:16;15.27;51.61
77467;DHT22;66564;42.482;25.548;2023-03-23T12:06:07;15.15;51.79
77467;DHT22;66564;42.482;25.548;2023-03-23T12:43:48;15.15;50.07
77467;DHT22;66564;42.482;25.548;2023-03-23T12:52:00;14.71;50.61
77467;DHT22;66564;42.482;25.548;2023-03-23T12:54:32;14.73;51.34
77467;DHT22;66564;42.482;25.548;2023-03-23T12:57:29;14.71;52.02
77467;DHT22;66564;42.482;25.548;2023-03-23T13:02:35;14.70;52.24
77467;DHT22;66564;42.482;25.548;2023-03-23T13:07:53;14.83;52.16
77467;DHT22;66564;42.482;25.548;2023-03-23T13:10:25;14.78;51.56
77467;DHT22;66564;42.482;25.548;2023-03-23T13:12:52;14.74;51.39
77467;DHT22;66564;42.482;25.548;2023-03-23T13:21:23;14.74;50.99
77467;DHT22;66564;42.482;25.548;2023-03-23T13:23:56;14.71;51.19
77467;DHT22;66564;42.482;25.548;2023-03-23T13:26:24;14.67;51.67
77467;DHT22;66564;42.482;25.548;2023-03-23T13:31:33;14.56;51.39
77467;DHT22;66564;42.482;25.548;2023-03-23T13:34:10;14.37;52.54
77467;DHT22;66564;42.482;25.548;2023-03-23T13:36:51;14.40;52.94
77467;DHT22;66564;42.482;25.548;2023-03-23T13:39:26;14.40;52.98
77467;DHT22;66564;42.482;25.548;2023-03-23T13:50:12;14.53;51.79
77467;DHT22;66564;42.482;25.548;2023-03-23T14:10:54;14.53;51.63
77467;DHT22;66564;42.482;25.548;2023-03-23T14:16:13;14.50;51.53
77467;DHT22;66564;42.482;25.548;2023-03-23T14:18:41;14.44;51.76
77467;DHT22;66564;42.482;25.548;2023-03-23T14:21:16;14.43;52.08
77467;DHT22;66564;42.482;25.548;2023-03-23T14:23:41;14.43;52.37
77467;DHT22;66564;42.482;25.548;2023-03-23T14:26:15;14.38;51.79
77467;DHT22;66564;42.482;25.548;2023-03-23T14:28:44;14.37;51.37
77467;DHT22;66564;42.482;25.548;2023-03-23T14:31:20;14.30;52.09
77467;DHT22;66564;42.482;25.548;2023-03-23T14:33:46;14.20;51.80
77467;DHT22;66564;42.482;25.548;2023-03-23T14:36:14;14.16;52.66
77467;DHT22;66564;42.482;25.548;2023-03-23T14:38:40;14.12;52.72
77467;DHT22;66564;42.482;25.548;2023-03-23T14:41:06;14.09;52.09
77467;DHT22;66564;42.482;25.548;2023-03-23T14:43:33;14.06;52.56
77467;DHT22;66564;42.482;25.548;2023-03-23T14:46:01;14.08;52.62
77467;DHT22;66564;42.482;25.548;2023-03-23T14:48:27;14.08;52.83
77467;DHT22;66564;42.482;25.548;2023-03-23T14:51:02;14.06;52.64
77467;DHT22;66564;42.482;25.548;2023-03-23T14:53:38;14.01;52.63
77467;DHT22;66564;42.482;25.548;2023-03-23T14:56:14;13.99;52.21
77467;DHT22;66564;42.482;25.548;2023-03-23T14:58:44;13.86;52.52
77467;DHT22;66564;42.482;25.548;2023-03-23T15:01:13;13.87;52.08
77467;DHT22;66564;42.482;25.548;2023-03-23T15:03:44;13.83;52.77
77467;DHT22;66564;42.482;25.548;2023-03-23T15:06:18;13.83;52.98
77467;DHT22;66564;42.482;25.548;2023-03-23T15:08:47;13.86;52.97
77467;DHT22;66564;42.482;25.548;2023-03-23T15:13:51;13.83;52.62
77467;DHT22;66564;42.482;25.548;2023-03-23T15:16:20;13.82;51.98
77467;DHT22;66564;42.482;25.548;2023-03-23T15:18:59;13.82;52.29
77467;DHT22;66564;42.482;25.548;2023-03-23T15:21:32;13.79;54.11
77467;DHT22;66564;42.482;25.548;2023-03-23T15:24:00;13.76;53.72
77467;DHT22;66564;42.482;25.548;2023-03-23T15:29:15;13.27;54.66
77467;DHT22;66564;42.482;25.548;2023-03-23T15:31:47;13.10;55.38
77467;DHT22;66564;42.482;25.548;2023-03-23T15:34:21;13.01;55.34
77467;DHT22;66564;42.482;25.548;2023-03-23T15:37:01;13.10;54.91
77467;DHT22;66564;42.482;25.548;2023-03-23T15:39:28;13.06;55.10
77467;DHT22;66564;42.482;25.548;2023-03-23T15:41:54;13.07;55.14
77467;DHT22;66564;42.482;25.548;2023-03-23T15:44:27;13.04;55.14
77467;DHT22;66564;42.482;25.548;2023-03-23T15:47:22;13.01;55.39
77467;DHT22;66564;42.482;25.548;2023-03-23T15:49:58;12.96;54.90
77467;DHT22;66564;42.482;25.548;2023-03-23T15:52:24;12.87;55.22
77467;DHT22;66564;42.482;25.548;2023-03-23T15:54:50;12.87;55.56
77467;DHT22;66564;42.482;25.548;2023-03-23T15:57:16;12.79;56.21
77467;DHT22;66564;42.482;25.548;2023-03-23T15:59:41;12.86;56.98
77467;DHT22;66564;42.482;25.548;2023-03-23T16:02:16;12.86;57.66
77467;DHT22;66564;42.482;25.548;2023-03-23T16:04:43;12.50;58.19
77467;DHT22;66564;42.482;25.548;2023-03-23T16:07:08;12.59;58.01
77467;DHT22;66564;42.482;25.548;2023-03-23T16:09:38;12.64;58.37
77467;DHT22;66564;42.482;25.548;2023-03-23T16:12:10;12.68;59.17
77467;DHT22;66564;42.482;25.548;2023-03-23T16:14:37;12.68;58.92
77467;DHT22;66564;42.482;25.548;2023-03-23T16:17:03;12.67;58.92
77467;DHT22;66564;42.482;25.548;2023-03-23T16:19:28;12.68;58.31
77467;DHT22;66564;42.482;25.548;2023-03-23T16:21:54;12.73;57.96
77467;DHT22;66564;42.482;25.548;2023-03-23T16:24:19;12.74;58.80
77467;DHT22;66564;42.482;25.548;2023-03-23T16:26:45;12.76;58.29
77467;DHT22;66564;42.482;25.548;2023-03-23T16:29:12;12.77;58.75
77467;DHT22;66564;42.482;25.548;2023-03-23T16:31:38;12.79;59.27
77467;DHT22;66564;42.482;25.548;2023-03-23T16:34:07;12.79;59.52
77467;DHT22;66564;42.482;25.548;2023-03-23T16:36:33;12.76;58.80
77467;DHT22;66564;42.482;25.548;2023-03-23T16:38:59;12.74;58.81
77467;DHT22;66564;42.482;25.548;2023-03-23T16:41:25;12.66;59.29
77467;DHT22;66564;42.482;25.548;2023-03-23T16:43:50;12.68;59.96
77467;DHT22;66564;42.482;25.548;2023-03-23T16:46:16;12.63;60.37
77467;DHT22;66564;42.482;25.548;2023-03-23T16:48:42;12.50;60.62
77467;DHT22;66564;42.482;25.548;2023-03-23T16:51:08;12.30;61.57
77467;DHT22;66564;42.482;25.548;2023-03-23T16:53:34;12.36;61.60
77467;DHT22;66564;42.482;25.548;2023-03-23T16:56:01;12.36;61.83
77467;DHT22;66564;42.482;25.548;2023-03-23T16:58:27;12.26;62.36
77467;DHT22;66564;42.482;25.548;2023-03-23T17:00:52;12.28;62.71
77467;DHT22;66564;42.482;25.548;2023-03-23T17:03:19;12.22;62.59
77467;DHT22;66564;42.482;25.548;2023-03-23T17:05:50;12.18;63.49
77467;DHT22;66564;42.482;25.548;2023-03-23T17:08:16;12.09;62.50
77467;DHT22;66564;42.482;25.548;2023-03-23T17:10:43;12.06;62.80
77467;DHT22;66564;42.482;25.548;2023-03-23T17:13:09;12.02;62.23
77467;DHT22;66564;42.482;25.548;2023-03-23T17:15:40;11.93;62.91
77467;DHT22;66564;42.482;25.548;2023-03-23T17:18:06;11.91;63.02
77467;DHT22;66564;42.482;25.548;2023-03-23T17:20:32;11.86;63.67
77467;DHT22;66564;42.482;25.548;2023-03-23T17:22:58;11.82;63.16
77467;DHT22;66564;42.482;25.548;2023-03-23T17:25:25;11.67;63.76
77467;DHT22;66564;42.482;25.548;2023-03-23T17:27:51;11.59;64.34
77467;DHT22;66564;42.482;25.548;2023-03-23T17:30:17;11.58;64.44
77467;DHT22;66564;42.482;25.548;2023-03-23T17:32:42;11.51;64.68
77467;DHT22;66564;42.482;25.548;2023-03-23T17:35:08;11.51;64.72
77467;DHT22;66564;42.482;25.548;2023-03-23T17:37:34;11.41;65.26
77467;DHT22;66564;42.482;25.548;2023-03-23T17:40:01;11.44;65.66
77467;DHT22;66564;42.482;25.548;2023-03-23T17:42:28;11.42;65.84
77467;DHT22;66564;42.482;25.548;2023-03-23T17:44:53;11.41;65.63
77467;DHT22;66564;42.482;25.548;2023-03-23T17:47:19;11.37;65.86